sensor_id;sensor_type;location;lat;lon;timestamp;temperature;humidity
31687;DHT22;18285;51.330;4.946;2024-01-07T00:13:50;25.50;31.30
31687;DHT22;18285;51.330;4.946;2024-01-07T00:38:01;25.60;31.10
31687;DHT22;18285;51.330;4.946;2024-01-07T01:02:12;25.90;30.00
31687;DHT22;18285;51.330;4.946;2024-01-07T01:26:22;26.30;30.00
31687;DHT22;18285;51.330;4.946;2024-01-07T01:50:33;26.60;29.30
31687;DHT22;18285;51.330;4.946;2024-01-07T02:14:44;26.70;29.20
31687;DHT22;18285;51.330;4.946;2024-01-07T02:38:54;26.80;29.20
31687;DHT22;18285;51.330;4.946;2024-01-07T03:03:05;26.80;29.10
31687;DHT22;18285;51.330;4.946;2024-01-07T03:27:15;26.70;29.10
31687;DHT22;18285;51.330;4.946;2024-01-07T03:51:26;26.60;29.20
31687;DHT22;18285;51.330;4.946;2024-01-07T04:15:37;26.40;29.30
31687;DHT22;18285;51.330;4.946;2024-01-07T04:39:47;26.30;29.40
31687;DHT22;18285;51.330;4.946;2024-01-07T05:03:58;26.10;29.40
31687;DHT22;18285;51.330;4.946;2024-01-07T05:28:09;25.90;29.90
31687;DHT22;18285;51.330;4.946;2024-01-07T05:52:20;25.90;29.60
31687;DHT22;18285;51.330;4.946;2024-01-07T06:16:30;25.70;29.50
31687;DHT22;18285;51.330;4.946;2024-01-07T06:40:41;25.60;29.50
31687;DHT22;18285;51.330;4.946;2024-01-07T07:04:52;25.40;29.40
31687;DHT22;18285;51.330;4.946;2024-01-07T07:29:03;25.30;29.40
31687;DHT22;18285;51.330;4.946;2024-01-07T07:53:13;25.20;29.20
31687;DHT22;18285;51.330;4.946;2024-01-07T08:17:24;25.20;29.10
31687;DHT22;18285;51.330;4.946;2024-01-07T08:41:34;25.10;28.60
31687;DHT22;18285;51.330;4.946;2024-01-07T09:05:45;25.00;28.40
31687;DHT22;18285;51.330;4.946;2024-01-07T09:29:56;25.00;28.40
31687;DHT22;18285;51.330;4.946;2024-01-07T09:54:08;25.00;28.30
31687;DHT22;18285;51.330;4.946;2024-01-07T10:18:21;24.90;28.40
31687;DHT22;18285;51.330;4.946;2024-01-07T10:42:33;24.80;28.20
31687;DHT22;18285;51.330;4.946;2024-01-07T11:18:22;24.80;27.30
31687;DHT22;18285;51.330;4.946;2024-01-07T11:42:33;24.80;27.50
31687;DHT22;18285;51.330;4.946;2024-01-07T12:06:44;24.60;27.60
31687;DHT22;18285;51.330;4.946;2024-01-07T12:31:21;24.50;27.70
31687;DHT22;18285;51.330;4.946;2024-01-07T12:55:32;24.50;28.70
31687;DHT22;18285;51.330;4.946;2024-01-07T13:19:42;24.50;28.40
31687;DHT22;18285;51.330;4.946;2024-01-07T13:43:53;24.40;28.10
31687;DHT22;18285;51.330;4.946;2024-01-07T14:08:06;24.10;25.40
31687;DHT22;18285;51.330;4.946;2024-01-07T14:32:16;24.10;27.20
31687;DHT22;18285;51.330;4.946;2024-01-07T14:56:27;24.10;26.90
31687;DHT22;18285;51.330;4.946;2024-01-07T15:20:38;24.00;26.70
31687;DHT22;18285;51.330;4.946;2024-01-07T15:44:48;24.10;26.10
31687;DHT22;18285;51.330;4.946;2024-01-07T16:08:59;23.90;26.00
31687;DHT22;18285;51.330;4.946;2024-01-07T16:33:10;23.90;26.00
31687;DHT22;18285;51.330;4.946;2024-01-07T16:57:21;23.90;26.50
31687;DHT22;18285;51.330;4.946;2024-01-07T17:21:31;23.90;28.20
31687;DHT22;18285;51.330;4.946;2024-01-07T17:45:42;23.90;28.50
31687;DHT22;18285;51.330;4.946;2024-01-07T18:09:53;24.00;28.50
31687;DHT22;18285;51.330;4.946;2024-01-07T18:34:04;23.90;27.70
31687;DHT22;18285;51.330;4.946;2024-01-07T18:58:15;23.80;29.50
31687;DHT22;18285;51.330;4.946;2024-01-07T19:22:26;23.80;29.70
31687;DHT22;18285;51.330;4.946;2024-01-07T19:46:36;23.90;28.80
31687;DHT22;18285;51.330;4.946;2024-01-07T20:10:47;23.80;29.30
31687;DHT22;18285;51.330;4.946;2024-01-07T20:34:58;23.80;28.50
31687;DHT22;18285;51.330;4.946;2024-01-07T20:59:09;23.80;28.80
31687;DHT22;18285;51.330;4.946;2024-01-07T21:23:21;23.80;27.90
31687;DHT22;18285;51.330;4.946;2024-01-07T21:47:32;23.70;28.00
31687;DHT22;18285;51.330;4.946;2024-01-07T22:11:42;23.70;26.50
31687;DHT22;18285;51.330;4.946;2024-01-07T22:35:53;23.60;26.80
31687;DHT22;18285;51.330;4.946;2024-01-07T23:24:19;23.50;27.60
31687;DHT22;18285;51.330;4.946;2024-01-07T23:48:30;23.50;27.10
